sensor_id;sensor_type;location;lat;lon;timestamp;P1;durP1;ratioP1;P2;durP2;ratioP2
18407;SDS011;9330;52.210;21.174;2022-09-09T00:01:43;8.95;;;6.05;;
18407;SDS011;9330;52.210;21.174;2022-09-09T00:04:19;11.20;;;6.13;;
18407;SDS011;9330;52.210;21.174;2022-09-09T00:06:56;7.95;;;5.43;;
18407;SDS011;9330;52.210;21.174;2022-09-09T00:09:30;9.52;;;5.80;;
18407;SDS011;9330;52.210;21.174;2022-09-09T00:12:04;8.18;;;6.43;;
18407;SDS011;9330;52.210;21.174;2022-09-09T00:14:39;8.70;;;5.70;;
18407;SDS011;9330;52.210;21.174;2022-09-09T00:17:18;8.32;;;5.63;;
18407;SDS011;9330;52.210;21.174;2022-09-09T00:19:59;10.20;;;6.20;;
18407;SDS011;9330;52.210;21.174;2022-09-09T00:22:38;12.05;;;6.00;;
18407;SDS011;9330;52.210;21.174;2022-09-09T00:25:12;10.27;;;5.70;;
18407;SDS011;9330;52.210;21.174;2022-09-09T00:27:47;11.43;;;6.18;;
18407;SDS011;9330;52.210;21.174;2022-09-09T00:30:16;8.70;;;5.32;;
18407;SDS011;9330;52.210;21.174;2022-09-09T00:32:45;10.70;;;6.32;;
18407;SDS011;9330;52.210;21.174;2022-09-09T00:35:17;11.43;;;6.97;;
18407;SDS011;9330;52.210;21.174;2022-09-09T00:37:50;9.95;;;6.40;;
18407;SDS011;9330;52.210;21.174;2022-09-09T00:40:24;10.95;;;5.90;;
18407;SDS011;9330;52.210;21.174;2022-09-09T00:43:04;9.73;;;6.63;;
18407;SDS011;9330;52.210;21.174;2022-09-09T00:46:02;10.23;;;6.35;;
18407;SDS011;9330;52.210;21.174;2022-09-09T00:48:47;10.88;;;6.30;;
18407;SDS011;9330;52.210;21.174;2022-09-09T00:51:23;9.15;;;6.40;;
18407;SDS011;9330;52.210;21.174;2022-09-09T00:54:02;11.02;;;6.28;;
18407;SDS011;9330;52.210;21.174;2022-09-09T00:56:41;9.90;;;6.57;;
18407;SDS011;9330;52.210;21.174;2022-09-09T00:59:21;12.20;;;6.45;;
18407;SDS011;9330;52.210;21.174;2022-09-09T01:01:54;10.75;;;6.38;;
18407;SDS011;9330;52.210;21.174;2022-09-09T01:04:25;8.73;;;5.53;;
18407;SDS011;9330;52.210;21.174;2022-09-09T01:07:00;12.95;;;6.53;;
18407;SDS011;9330;52.210;21.174;2022-09-09T01:09:37;10.63;;;6.63;;
18407;SDS011;9330;52.210;21.174;2022-09-09T01:12:17;9.90;;;5.95;;
18407;SDS011;9330;52.210;21.174;2022-09-09T01:14:52;10.32;;;7.10;;
18407;SDS011;9330;52.210;21.174;2022-09-09T01:17:24;10.18;;;7.05;;
18407;SDS011;9330;52.210;21.174;2022-09-09T01:19:59;10.18;;;6.32;;
18407;SDS011;9330;52.210;21.174;2022-09-09T01:22:35;11.32;;;7.22;;
18407;SDS011;9330;52.210;21.174;2022-09-09T01:25:14;9.68;;;6.57;;
18407;SDS011;9330;52.210;21.174;2022-09-09T01:27:52;9.82;;;6.93;;
18407;SDS011;9330;52.210;21.174;2022-09-09T01:30:22;9.90;;;6.32;;
18407;SDS011;9330;52.210;21.174;2022-09-09T01:32:50;11.52;;;7.00;;
18407;SDS011;9330;52.210;21.174;2022-09-09T01:35:27;9.57;;;6.72;;
18407;SDS011;9330;52.210;21.174;2022-09-09T01:38:01;10.43;;;6.85;;
18407;SDS011;9330;52.210;21.174;2022-09-09T01:40:28;9.38;;;6.82;;
18407;SDS011;9330;52.210;21.174;2022-09-09T01:42:57;10.80;;;6.93;;
18407;SDS011;9330;52.210;21.174;2022-09-09T01:45:24;16.40;;;7.38;;
18407;SDS011;9330;52.210;21.174;2022-09-09T01:47:52;9.98;;;6.78;;
18407;SDS011;9330;52.210;21.174;2022-09-09T01:50:19;11.95;;;7.80;;
18407;SDS011;9330;52.210;21.174;2022-09-09T01:52:48;9.63;;;6.85;;
18407;SDS011;9330;52.210;21.174;2022-09-09T01:55:19;9.18;;;6.97;;
18407;SDS011;9330;52.210;21.174;2022-09-09T01:57:56;10.27;;;7.05;;
18407;SDS011;9330;52.210;21.174;2022-09-09T02:00:38;10.93;;;7.80;;
18407;SDS011;9330;52.210;21.174;2022-09-09T02:03:13;9.80;;;7.05;;
18407;SDS011;9330;52.210;21.174;2022-09-09T02:05:51;11.20;;;8.07;;
18407;SDS011;9330;52.210;21.174;2022-09-09T02:08:26;10.18;;;7.28;;
18407;SDS011;9330;52.210;21.174;2022-09-09T02:11:01;11.07;;;8.18;;
18407;SDS011;9330;52.210;21.174;2022-09-09T02:13:34;13.27;;;9.07;;
18407;SDS011;9330;52.210;21.174;2022-09-09T02:16:04;9.75;;;7.93;;
18407;SDS011;9330;52.210;21.174;2022-09-09T02:18:35;12.32;;;8.13;;
18407;SDS011;9330;52.210;21.174;2022-09-09T02:21:07;12.73;;;8.18;;
18407;SDS011;9330;52.210;21.174;2022-09-09T02:23:37;11.75;;;7.68;;
18407;SDS011;9330;52.210;21.174;2022-09-09T02:26:06;11.13;;;7.80;;
18407;SDS011;9330;52.210;21.174;2022-09-09T02:28:36;11.40;;;8.57;;
18407;SDS011;9330;52.210;21.174;2022-09-09T02:31:13;9.73;;;7.30;;
18407;SDS011;9330;52.210;21.174;2022-09-09T02:33:44;11.48;;;8.20;;
18407;SDS011;9330;52.210;21.174;2022-09-09T02:36:14;10.55;;;7.90;;
18407;SDS011;9330;52.210;21.174;2022-09-09T02:38:43;14.35;;;8.85;;
18407;SDS011;9330;52.210;21.174;2022-09-09T02:41:15;11.00;;;8.18;;
18407;SDS011;9330;52.210;21.174;2022-09-09T02:43:44;12.05;;;7.80;;
18407;SDS011;9330;52.210;21.174;2022-09-09T02:46:17;11.10;;;8.13;;
18407;SDS011;9330;52.210;21.174;2022-09-09T02:48:57;10.45;;;7.80;;
18407;SDS011;9330;52.210;21.174;2022-09-09T02:51:28;17.13;;;8.68;;
18407;SDS011;9330;52.210;21.174;2022-09-09T02:54:04;13.98;;;9.77;;
18407;SDS011;9330;52.210;21.174;2022-09-09T02:56:39;13.18;;;8.55;;
18407;SDS011;9330;52.210;21.174;2022-09-09T02:59:19;11.63;;;8.65;;
18407;SDS011;9330;52.210;21.174;2022-09-09T03:01:49;12.27;;;7.82;;
18407;SDS011;9330;52.210;21.174;2022-09-09T03:04:19;10.80;;;7.72;;
18407;SDS011;9330;52.210;21.174;2022-09-09T03:06:46;13.20;;;8.23;;
18407;SDS011;9330;52.210;21.174;2022-09-09T03:09:14;12.43;;;8.52;;
18407;SDS011;9330;52.210;21.174;2022-09-09T03:11:43;11.27;;;8.73;;
18407;SDS011;9330;52.210;21.174;2022-09-09T03:14:29;11.07;;;8.38;;
18407;SDS011;9330;52.210;21.174;2022-09-09T03:16:56;11.15;;;7.90;;
18407;SDS011;9330;52.210;21.174;2022-09-09T03:19:29;12.13;;;7.70;;
18407;SDS011;9330;52.210;21.174;2022-09-09T03:21:56;8.63;;;7.05;;
18407;SDS011;9330;52.210;21.174;2022-09-09T03:24:23;10.25;;;7.63;;
18407;SDS011;9330;52.210;21.174;2022-09-09T03:26:51;10.15;;;6.95;;
18407;SDS011;9330;52.210;21.174;2022-09-09T03:29:17;12.27;;;7.88;;
18407;SDS011;9330;52.210;21.174;2022-09-09T03:31:46;10.07;;;7.35;;
18407;SDS011;9330;52.210;21.174;2022-09-09T03:34:13;10.50;;;7.25;;
18407;SDS011;9330;52.210;21.174;2022-09-09T03:36:41;9.00;;;7.47;;
18407;SDS011;9330;52.210;21.174;2022-09-09T03:39:08;10.38;;;7.55;;
18407;SDS011;9330;52.210;21.174;2022-09-09T03:41:35;8.10;;;6.32;;
18407;SDS011;9330;52.210;21.174;2022-09-09T03:44:10;8.52;;;6.68;;
18407;SDS011;9330;52.210;21.174;2022-09-09T03:46:37;10.25;;;6.97;;
18407;SDS011;9330;52.210;21.174;2022-09-09T03:49:05;7.70;;;6.47;;
18407;SDS011;9330;52.210;21.174;2022-09-09T03:51:32;7.50;;;5.95;;
18407;SDS011;9330;52.210;21.174;2022-09-09T03:54:01;9.98;;;6.90;;
18407;SDS011;9330;52.210;21.174;2022-09-09T03:56:30;7.43;;;6.38;;
18407;SDS011;9330;52.210;21.174;2022-09-09T03:58:57;11.07;;;6.68;;
18407;SDS011;9330;52.210;21.174;2022-09-09T04:01:24;9.25;;;5.97;;
18407;SDS011;9330;52.210;21.174;2022-09-09T04:03:51;7.82;;;5.47;;
18407;SDS011;9330;52.210;21.174;2022-09-09T04:06:19;7.60;;;6.32;;
18407;SDS011;9330;52.210;21.174;2022-09-09T04:08:49;7.13;;;5.43;;
18407;SDS011;9330;52.210;21.174;2022-09-09T04:11:17;6.18;;;4.70;;
18407;SDS011;9330;52.210;21.174;2022-09-09T04:13:44;7.20;;;5.15;;
18407;SDS011;9330;52.210;21.174;2022-09-09T04:16:11;7.35;;;5.32;;
18407;SDS011;9330;52.210;21.174;2022-09-09T04:18:39;7.30;;;5.07;;
18407;SDS011;9330;52.210;21.174;2022-09-09T04:21:06;7.03;;;4.90;;
18407;SDS011;9330;52.210;21.174;2022-09-09T04:23:36;5.53;;;4.75;;
18407;SDS011;9330;52.210;21.174;2022-09-09T04:26:04;7.95;;;5.35;;
18407;SDS011;9330;52.210;21.174;2022-09-09T04:28:32;5.38;;;4.70;;
18407;SDS011;9330;52.210;21.174;2022-09-09T04:31:03;5.82;;;4.80;;
18407;SDS011;9330;52.210;21.174;2022-09-09T04:33:31;5.50;;;4.65;;
18407;SDS011;9330;52.210;21.174;2022-09-09T04:35:58;5.55;;;4.60;;
18407;SDS011;9330;52.210;21.174;2022-09-09T04:38:25;7.43;;;4.90;;
18407;SDS011;9330;52.210;21.174;2022-09-09T04:40:55;6.80;;;4.88;;
18407;SDS011;9330;52.210;21.174;2022-09-09T04:43:23;6.78;;;5.07;;
18407;SDS011;9330;52.210;21.174;2022-09-09T04:45:52;7.45;;;5.38;;
18407;SDS011;9330;52.210;21.174;2022-09-09T04:48:20;5.28;;;4.57;;
18407;SDS011;9330;52.210;21.174;2022-09-09T04:50:54;5.60;;;4.50;;
18407;SDS011;9330;52.210;21.174;2022-09-09T04:53:22;5.57;;;4.43;;
18407;SDS011;9330;52.210;21.174;2022-09-09T04:55:50;5.00;;;4.50;;
18407;SDS011;9330;52.210;21.174;2022-09-09T04:58:26;5.65;;;4.57;;
18407;SDS011;9330;52.210;21.174;2022-09-09T05:01:05;4.90;;;4.15;;
18407;SDS011;9330;52.210;21.174;2022-09-09T05:03:33;5.38;;;3.92;;
18407;SDS011;9330;52.210;21.174;2022-09-09T05:06:06;5.68;;;4.45;;
18407;SDS011;9330;52.210;21.174;2022-09-09T05:11:20;4.85;;;3.88;;
18407;SDS011;9330;52.210;21.174;2022-09-09T05:13:51;4.45;;;3.63;;
18407;SDS011;9330;52.210;21.174;2022-09-09T05:16:19;3.78;;;3.47;;
18407;SDS011;9330;52.210;21.174;2022-09-09T05:18:47;6.20;;;3.75;;
18407;SDS011;9330;52.210;21.174;2022-09-09T05:21:16;4.65;;;3.72;;
18407;SDS011;9330;52.210;21.174;2022-09-09T05:23:45;5.22;;;3.90;;
18407;SDS011;9330;52.210;21.174;2022-09-09T05:26:13;4.75;;;3.63;;
18407;SDS011;9330;52.210;21.174;2022-09-09T05:28:45;4.68;;;3.88;;
18407;SDS011;9330;52.210;21.174;2022-09-09T05:31:18;4.32;;;3.50;;
18407;SDS011;9330;52.210;21.174;2022-09-09T05:34:07;5.32;;;3.88;;
18407;SDS011;9330;52.210;21.174;2022-09-09T05:36:36;3.85;;;3.45;;
18407;SDS011;9330;52.210;21.174;2022-09-09T05:39:03;4.38;;;3.28;;
18407;SDS011;9330;52.210;21.174;2022-09-09T05:41:33;3.78;;;3.33;;
18407;SDS011;9330;52.210;21.174;2022-09-09T05:44:19;4.28;;;3.67;;
18407;SDS011;9330;52.210;21.174;2022-09-09T05:46:48;3.95;;;3.55;;
18407;SDS011;9330;52.210;21.174;2022-09-09T05:49:15;4.60;;;3.75;;
18407;SDS011;9330;52.210;21.174;2022-09-09T05:51:51;5.20;;;3.75;;
18407;SDS011;9330;52.210;21.174;2022-09-09T05:54:19;6.68;;;4.13;;
18407;SDS011;9330;52.210;21.174;2022-09-09T05:56:54;4.53;;;3.65;;
18407;SDS011;9330;52.210;21.174;2022-09-09T05:59:44;4.63;;;3.97;;
18407;SDS011;9330;52.210;21.174;2022-09-09T06:02:22;4.57;;;3.75;;
18407;SDS011;9330;52.210;21.174;2022-09-09T06:05:02;5.28;;;4.03;;
18407;SDS011;9330;52.210;21.174;2022-09-09T06:07:30;4.85;;;4.22;;
18407;SDS011;9330;52.210;21.174;2022-09-09T06:09:58;4.10;;;3.63;;
18407;SDS011;9330;52.210;21.174;2022-09-09T06:12:25;3.97;;;3.58;;
18407;SDS011;9330;52.210;21.174;2022-09-09T06:14:59;4.75;;;4.30;;
18407;SDS011;9330;52.210;21.174;2022-09-09T06:17:39;4.28;;;3.88;;
18407;SDS011;9330;52.210;21.174;2022-09-09T06:20:11;4.88;;;4.40;;
18407;SDS011;9330;52.210;21.174;2022-09-09T06:22:39;4.25;;;3.85;;
18407;SDS011;9330;52.210;21.174;2022-09-09T06:25:07;5.53;;;4.80;;
18407;SDS011;9330;52.210;21.174;2022-09-09T06:27:38;5.72;;;4.72;;
18407;SDS011;9330;52.210;21.174;2022-09-09T06:30:18;5.70;;;4.60;;
18407;SDS011;9330;52.210;21.174;2022-09-09T06:32:45;6.45;;;4.65;;
18407;SDS011;9330;52.210;21.174;2022-09-09T06:35:15;6.38;;;5.40;;
18407;SDS011;9330;52.210;21.174;2022-09-09T06:37:47;6.82;;;5.10;;
18407;SDS011;9330;52.210;21.174;2022-09-09T06:40:14;6.18;;;5.07;;
18407;SDS011;9330;52.210;21.174;2022-09-09T06:42:44;6.15;;;5.55;;
18407;SDS011;9330;52.210;21.174;2022-09-09T06:45:11;8.00;;;5.75;;
18407;SDS011;9330;52.210;21.174;2022-09-09T06:47:42;6.63;;;5.28;;
18407;SDS011;9330;52.210;21.174;2022-09-09T06:50:08;6.30;;;5.43;;
18407;SDS011;9330;52.210;21.174;2022-09-09T06:52:37;6.05;;;5.45;;
18407;SDS011;9330;52.210;21.174;2022-09-09T06:55:04;6.50;;;5.90;;
18407;SDS011;9330;52.210;21.174;2022-09-09T06:57:33;7.20;;;5.72;;
18407;SDS011;9330;52.210;21.174;2022-09-09T07:00:03;6.25;;;5.65;;
18407;SDS011;9330;52.210;21.174;2022-09-09T07:02:35;6.75;;;5.97;;
18407;SDS011;9330;52.210;21.174;2022-09-09T07:05:12;6.80;;;6.03;;
18407;SDS011;9330;52.210;21.174;2022-09-09T07:07:42;6.93;;;5.95;;
18407;SDS011;9330;52.210;21.174;2022-09-09T07:10:12;6.68;;;5.70;;
18407;SDS011;9330;52.210;21.174;2022-09-09T07:12:39;7.35;;;5.97;;
18407;SDS011;9330;52.210;21.174;2022-09-09T07:15:28;8.07;;;5.97;;
18407;SDS011;9330;52.210;21.174;2022-09-09T07:17:55;7.57;;;5.78;;
18407;SDS011;9330;52.210;21.174;2022-09-09T07:20:37;7.95;;;6.70;;
18407;SDS011;9330;52.210;21.174;2022-09-09T07:23:04;7.45;;;6.50;;
18407;SDS011;9330;52.210;21.174;2022-09-09T07:25:31;7.72;;;6.28;;
18407;SDS011;9330;52.210;21.174;2022-09-09T07:27:59;7.43;;;6.60;;
18407;SDS011;9330;52.210;21.174;2022-09-09T07:30:29;8.05;;;6.18;;
18407;SDS011;9330;52.210;21.174;2022-09-09T07:32:56;6.47;;;5.82;;
18407;SDS011;9330;52.210;21.174;2022-09-09T07:35:24;8.45;;;6.95;;
18407;SDS011;9330;52.210;21.174;2022-09-09T07:37:53;7.72;;;7.00;;
18407;SDS011;9330;52.210;21.174;2022-09-09T07:40:20;7.35;;;6.18;;
18407;SDS011;9330;52.210;21.174;2022-09-09T07:42:50;8.48;;;7.28;;
18407;SDS011;9330;52.210;21.174;2022-09-09T07:45:18;6.63;;;5.80;;
18407;SDS011;9330;52.210;21.174;2022-09-09T07:47:46;7.72;;;6.70;;
18407;SDS011;9330;52.210;21.174;2022-09-09T07:50:26;8.30;;;6.50;;
18407;SDS011;9330;52.210;21.174;2022-09-09T07:52:55;7.40;;;6.43;;
18407;SDS011;9330;52.210;21.174;2022-09-09T07:55:22;7.40;;;6.63;;
18407;SDS011;9330;52.210;21.174;2022-09-09T07:57:51;8.55;;;6.75;;
18407;SDS011;9330;52.210;21.174;2022-09-09T08:00:19;7.95;;;6.38;;
18407;SDS011;9330;52.210;21.174;2022-09-09T08:02:55;7.32;;;6.15;;
18407;SDS011;9330;52.210;21.174;2022-09-09T08:05:22;7.20;;;5.97;;
18407;SDS011;9330;52.210;21.174;2022-09-09T08:08:01;9.10;;;6.57;;
18407;SDS011;9330;52.210;21.174;2022-09-09T08:10:31;8.68;;;6.85;;
18407;SDS011;9330;52.210;21.174;2022-09-09T08:12:58;8.30;;;6.50;;
18407;SDS011;9330;52.210;21.174;2022-09-09T08:15:25;9.88;;;6.97;;
18407;SDS011;9330;52.210;21.174;2022-09-09T08:17:57;8.68;;;6.70;;
18407;SDS011;9330;52.210;21.174;2022-09-09T08:20:24;9.23;;;6.82;;
18407;SDS011;9330;52.210;21.174;2022-09-09T08:22:52;7.88;;;6.32;;
18407;SDS011;9330;52.210;21.174;2022-09-09T08:25:22;9.45;;;7.20;;
18407;SDS011;9330;52.210;21.174;2022-09-09T08:27:49;10.52;;;7.20;;
18407;SDS011;9330;52.210;21.174;2022-09-09T08:30:16;11.55;;;7.90;;
18407;SDS011;9330;52.210;21.174;2022-09-09T08:32:43;7.35;;;6.50;;
18407;SDS011;9330;52.210;21.174;2022-09-09T08:35:10;8.63;;;6.63;;
18407;SDS011;9330;52.210;21.174;2022-09-09T08:37:38;7.82;;;6.93;;
18407;SDS011;9330;52.210;21.174;2022-09-09T08:40:06;9.23;;;7.70;;
18407;SDS011;9330;52.210;21.174;2022-09-09T08:42:45;8.63;;;7.32;;
18407;SDS011;9330;52.210;21.174;2022-09-09T08:45:23;9.52;;;7.13;;
18407;SDS011;9330;52.210;21.174;2022-09-09T08:47:55;8.68;;;6.93;;
18407;SDS011;9330;52.210;21.174;2022-09-09T08:50:37;9.30;;;7.50;;
18407;SDS011;9330;52.210;21.174;2022-09-09T08:53:09;8.23;;;7.43;;
18407;SDS011;9330;52.210;21.174;2022-09-09T08:55:44;10.13;;;7.72;;
18407;SDS011;9330;52.210;21.174;2022-09-09T08:58:15;11.73;;;8.18;;
18407;SDS011;9330;52.210;21.174;2022-09-09T09:00:49;10.50;;;7.97;;
18407;SDS011;9330;52.210;21.174;2022-09-09T09:03:25;10.60;;;8.10;;
18407;SDS011;9330;52.210;21.174;2022-09-09T09:05:59;10.63;;;8.45;;
18407;SDS011;9330;52.210;21.174;2022-09-09T09:08:34;8.68;;;7.75;;
18407;SDS011;9330;52.210;21.174;2022-09-09T09:11:08;9.98;;;8.23;;
18407;SDS011;9330;52.210;21.174;2022-09-09T09:13:38;12.27;;;8.13;;
18407;SDS011;9330;52.210;21.174;2022-09-09T09:16:13;10.60;;;8.50;;
18407;SDS011;9330;52.210;21.174;2022-09-09T09:18:46;11.90;;;8.75;;
18407;SDS011;9330;52.210;21.174;2022-09-09T09:21:14;10.02;;;7.75;;
18407;SDS011;9330;52.210;21.174;2022-09-09T09:23:47;12.73;;;9.20;;
18407;SDS011;9330;52.210;21.174;2022-09-09T09:26:20;11.43;;;8.75;;
18407;SDS011;9330;52.210;21.174;2022-09-09T09:28:52;12.45;;;8.57;;
18407;SDS011;9330;52.210;21.174;2022-09-09T09:31:22;13.35;;;8.93;;
18407;SDS011;9330;52.210;21.174;2022-09-09T09:33:52;13.77;;;10.30;;
18407;SDS011;9330;52.210;21.174;2022-09-09T09:36:20;14.15;;;9.80;;
18407;SDS011;9330;52.210;21.174;2022-09-09T09:38:53;11.73;;;9.13;;
18407;SDS011;9330;52.210;21.174;2022-09-09T09:41:29;13.48;;;9.70;;
18407;SDS011;9330;52.210;21.174;2022-09-09T09:43:58;13.90;;;10.93;;
18407;SDS011;9330;52.210;21.174;2022-09-09T09:46:26;11.30;;;9.52;;
18407;SDS011;9330;52.210;21.174;2022-09-09T09:48:57;13.02;;;10.27;;
18407;SDS011;9330;52.210;21.174;2022-09-09T09:51:25;11.90;;;9.80;;
18407;SDS011;9330;52.210;21.174;2022-09-09T09:53:53;13.27;;;9.93;;
18407;SDS011;9330;52.210;21.174;2022-09-09T09:56:30;12.35;;;10.15;;
18407;SDS011;9330;52.210;21.174;2022-09-09T09:59:00;12.65;;;10.05;;
18407;SDS011;9330;52.210;21.174;2022-09-09T10:01:27;11.85;;;10.18;;
18407;SDS011;9330;52.210;21.174;2022-09-09T10:03:58;13.75;;;10.60;;
18407;SDS011;9330;52.210;21.174;2022-09-09T10:06:30;13.25;;;10.02;;
18407;SDS011;9330;52.210;21.174;2022-09-09T10:08:58;13.05;;;9.27;;
18407;SDS011;9330;52.210;21.174;2022-09-09T10:11:30;12.07;;;9.85;;
18407;SDS011;9330;52.210;21.174;2022-09-09T10:14:15;13.65;;;10.38;;
18407;SDS011;9330;52.210;21.174;2022-09-09T10:16:53;12.75;;;9.82;;
18407;SDS011;9330;52.210;21.174;2022-09-09T10:19:29;11.15;;;9.35;;
18407;SDS011;9330;52.210;21.174;2022-09-09T10:22:08;12.80;;;10.57;;
18407;SDS011;9330;52.210;21.174;2022-09-09T10:27:56;14.32;;;11.10;;
18407;SDS011;9330;52.210;21.174;2022-09-09T10:30:45;14.63;;;10.77;;
18407;SDS011;9330;52.210;21.174;2022-09-09T10:33:22;15.43;;;11.10;;
18407;SDS011;9330;52.210;21.174;2022-09-09T10:36:01;15.90;;;11.93;;
18407;SDS011;9330;52.210;21.174;2022-09-09T10:38:38;13.95;;;10.77;;
18407;SDS011;9330;52.210;21.174;2022-09-09T10:41:12;15.98;;;12.23;;
18407;SDS011;9330;52.210;21.174;2022-09-09T10:44:06;14.15;;;11.07;;
18407;SDS011;9330;52.210;21.174;2022-09-09T10:46:58;13.45;;;10.63;;
18407;SDS011;9330;52.210;21.174;2022-09-09T10:49:47;14.80;;;11.38;;
18407;SDS011;9330;52.210;21.174;2022-09-09T10:52:30;17.33;;;11.88;;
18407;SDS011;9330;52.210;21.174;2022-09-09T10:55:02;15.65;;;12.60;;
18407;SDS011;9330;52.210;21.174;2022-09-09T10:57:37;14.43;;;11.65;;
18407;SDS011;9330;52.210;21.174;2022-09-09T11:00:14;15.02;;;12.63;;
18407;SDS011;9330;52.210;21.174;2022-09-09T11:02:46;16.90;;;14.70;;
18407;SDS011;9330;52.210;21.174;2022-09-09T11:05:18;17.02;;;12.65;;
18407;SDS011;9330;52.210;21.174;2022-09-09T11:07:47;13.70;;;12.13;;
18407;SDS011;9330;52.210;21.174;2022-09-09T11:10:20;19.65;;;14.52;;
18407;SDS011;9330;52.210;21.174;2022-09-09T11:12:51;15.77;;;12.70;;
18407;SDS011;9330;52.210;21.174;2022-09-09T11:15:23;16.77;;;12.55;;
18407;SDS011;9330;52.210;21.174;2022-09-09T11:17:58;17.42;;;13.60;;
18407;SDS011;9330;52.210;21.174;2022-09-09T11:20:27;15.05;;;12.93;;
18407;SDS011;9330;52.210;21.174;2022-09-09T11:22:55;19.52;;;15.75;;
18407;SDS011;9330;52.210;21.174;2022-09-09T11:25:28;18.58;;;13.18;;
18407;SDS011;9330;52.210;21.174;2022-09-09T11:28:07;19.45;;;14.15;;
18407;SDS011;9330;52.210;21.174;2022-09-09T11:30:49;18.60;;;15.10;;
18407;SDS011;9330;52.210;21.174;2022-09-09T11:33:34;16.40;;;13.30;;
18407;SDS011;9330;52.210;21.174;2022-09-09T11:36:37;18.20;;;14.10;;
18407;SDS011;9330;52.210;21.174;2022-09-09T11:39:24;17.95;;;13.80;;
18407;SDS011;9330;52.210;21.174;2022-09-09T11:42:15;18.67;;;14.40;;
18407;SDS011;9330;52.210;21.174;2022-09-09T11:44:45;16.13;;;13.68;;
18407;SDS011;9330;52.210;21.174;2022-09-09T11:47:16;19.30;;;15.25;;
18407;SDS011;9330;52.210;21.174;2022-09-09T11:49:51;18.40;;;13.88;;
18407;SDS011;9330;52.210;21.174;2022-09-09T11:52:35;21.38;;;14.73;;
18407;SDS011;9330;52.210;21.174;2022-09-09T11:55:08;18.50;;;15.27;;
18407;SDS011;9330;52.210;21.174;2022-09-09T11:57:37;19.73;;;15.73;;
18407;SDS011;9330;52.210;21.174;2022-09-09T12:00:05;22.75;;;15.57;;
18407;SDS011;9330;52.210;21.174;2022-09-09T12:02:33;19.30;;;14.57;;
18407;SDS011;9330;52.210;21.174;2022-09-09T12:05:04;19.00;;;14.75;;
18407;SDS011;9330;52.210;21.174;2022-09-09T12:07:35;18.65;;;14.45;;
18407;SDS011;9330;52.210;21.174;2022-09-09T12:10:05;17.48;;;14.65;;
18407;SDS011;9330;52.210;21.174;2022-09-09T12:12:48;19.23;;;14.65;;
18407;SDS011;9330;52.210;21.174;2022-09-09T12:15:19;22.05;;;16.05;;
18407;SDS011;9330;52.210;21.174;2022-09-09T12:17:54;17.33;;;14.13;;
18407;SDS011;9330;52.210;21.174;2022-09-09T12:20:26;18.70;;;14.60;;
18407;SDS011;9330;52.210;21.174;2022-09-09T12:29:02;18.50;;;14.60;;
18407;SDS011;9330;52.210;21.174;2022-09-09T12:31:39;17.25;;;13.60;;
18407;SDS011;9330;52.210;21.174;2022-09-09T12:34:14;20.60;;;14.20;;
18407;SDS011;9330;52.210;21.174;2022-09-09T12:36:48;17.85;;;14.82;;
18407;SDS011;9330;52.210;21.174;2022-09-09T12:39:24;21.35;;;16.52;;
18407;SDS011;9330;52.210;21.174;2022-09-09T12:41:56;18.80;;;14.73;;
18407;SDS011;9330;52.210;21.174;2022-09-09T12:44:23;17.88;;;13.75;;
18407;SDS011;9330;52.210;21.174;2022-09-09T12:46:53;22.33;;;15.88;;
18407;SDS011;9330;52.210;21.174;2022-09-09T12:49:26;17.92;;;13.48;;
18407;SDS011;9330;52.210;21.174;2022-09-09T12:52:00;22.20;;;16.13;;
18407;SDS011;9330;52.210;21.174;2022-09-09T12:54:30;19.17;;;14.10;;
18407;SDS011;9330;52.210;21.174;2022-09-09T12:56:57;20.35;;;15.80;;
18407;SDS011;9330;52.210;21.174;2022-09-09T12:59:25;20.83;;;14.02;;
18407;SDS011;9330;52.210;21.174;2022-09-09T13:01:56;22.40;;;15.25;;
18407;SDS011;9330;52.210;21.174;2022-09-09T13:04:24;22.10;;;15.40;;
18407;SDS011;9330;52.210;21.174;2022-09-09T13:06:51;18.17;;;13.73;;
18407;SDS011;9330;52.210;21.174;2022-09-09T13:09:20;17.60;;;14.52;;
18407;SDS011;9330;52.210;21.174;2022-09-09T13:11:47;18.17;;;14.73;;
18407;SDS011;9330;52.210;21.174;2022-09-09T13:14:17;20.05;;;14.90;;
18407;SDS011;9330;52.210;21.174;2022-09-09T13:16:54;15.85;;;12.73;;
18407;SDS011;9330;52.210;21.174;2022-09-09T13:19:23;21.60;;;14.57;;
18407;SDS011;9330;52.210;21.174;2022-09-09T13:21:53;21.17;;;15.68;;
18407;SDS011;9330;52.210;21.174;2022-09-09T13:24:27;19.80;;;15.27;;
18407;SDS011;9330;52.210;21.174;2022-09-09T13:26:57;19.75;;;13.30;;
18407;SDS011;9330;52.210;21.174;2022-09-09T13:29:27;19.67;;;14.60;;
18407;SDS011;9330;52.210;21.174;2022-09-09T13:31:54;22.45;;;14.68;;
18407;SDS011;9330;52.210;21.174;2022-09-09T13:34:32;22.58;;;15.85;;
18407;SDS011;9330;52.210;21.174;2022-09-09T13:37:00;18.95;;;14.50;;
18407;SDS011;9330;52.210;21.174;2022-09-09T13:39:32;18.55;;;13.48;;
18407;SDS011;9330;52.210;21.174;2022-09-09T13:42:01;21.33;;;16.15;;
18407;SDS011;9330;52.210;21.174;2022-09-09T13:44:30;18.80;;;14.93;;
18407;SDS011;9330;52.210;21.174;2022-09-09T13:47:02;20.85;;;15.40;;
18407;SDS011;9330;52.210;21.174;2022-09-09T13:49:31;21.40;;;15.63;;
18407;SDS011;9330;52.210;21.174;2022-09-09T13:52:05;24.17;;;17.27;;
18407;SDS011;9330;52.210;21.174;2022-09-09T13:54:36;22.73;;;15.73;;
18407;SDS011;9330;52.210;21.174;2022-09-09T13:57:04;17.75;;;13.45;;
18407;SDS011;9330;52.210;21.174;2022-09-09T13:59:32;20.35;;;14.98;;
18407;SDS011;9330;52.210;21.174;2022-09-09T14:02:00;19.75;;;14.05;;
18407;SDS011;9330;52.210;21.174;2022-09-09T14:04:27;20.08;;;15.00;;
18407;SDS011;9330;52.210;21.174;2022-09-09T14:06:54;20.70;;;14.77;;
18407;SDS011;9330;52.210;21.174;2022-09-09T14:09:21;24.08;;;15.25;;
18407;SDS011;9330;52.210;21.174;2022-09-09T14:11:50;21.17;;;14.80;;
18407;SDS011;9330;52.210;21.174;2022-09-09T14:14:16;20.65;;;14.85;;
18407;SDS011;9330;52.210;21.174;2022-09-09T14:16:43;22.25;;;15.77;;
18407;SDS011;9330;52.210;21.174;2022-09-09T14:19:10;23.33;;;16.50;;
18407;SDS011;9330;52.210;21.174;2022-09-09T14:21:37;22.75;;;15.77;;
18407;SDS011;9330;52.210;21.174;2022-09-09T14:24:04;22.35;;;15.55;;
18407;SDS011;9330;52.210;21.174;2022-09-09T14:26:32;21.48;;;14.88;;
18407;SDS011;9330;52.210;21.174;2022-09-09T14:29:00;20.05;;;14.63;;
18407;SDS011;9330;52.210;21.174;2022-09-09T14:31:27;23.85;;;15.65;;
18407;SDS011;9330;52.210;21.174;2022-09-09T14:33:54;22.23;;;15.73;;
18407;SDS011;9330;52.210;21.174;2022-09-09T14:36:22;25.80;;;18.23;;
18407;SDS011;9330;52.210;21.174;2022-09-09T14:38:49;21.60;;;16.08;;
18407;SDS011;9330;52.210;21.174;2022-09-09T14:41:17;23.33;;;16.55;;
18407;SDS011;9330;52.210;21.174;2022-09-09T14:43:47;25.75;;;17.75;;
18407;SDS011;9330;52.210;21.174;2022-09-09T14:46:17;24.27;;;17.50;;
18407;SDS011;9330;52.210;21.174;2022-09-09T14:48:45;24.35;;;16.70;;
18407;SDS011;9330;52.210;21.174;2022-09-09T14:51:14;24.67;;;17.35;;
18407;SDS011;9330;52.210;21.174;2022-09-09T14:53:42;21.15;;;15.82;;
18407;SDS011;9330;52.210;21.174;2022-09-09T14:56:10;22.50;;;16.25;;
18407;SDS011;9330;52.210;21.174;2022-09-09T14:58:38;22.67;;;16.88;;
18407;SDS011;9330;52.210;21.174;2022-09-09T15:01:06;25.45;;;18.25;;
18407;SDS011;9330;52.210;21.174;2022-09-09T15:03:40;23.30;;;16.55;;
18407;SDS011;9330;52.210;21.174;2022-09-09T15:06:15;24.67;;;17.58;;
18407;SDS011;9330;52.210;21.174;2022-09-09T15:08:43;22.52;;;16.77;;
18407;SDS011;9330;52.210;21.174;2022-09-09T15:11:11;22.20;;;16.33;;
18407;SDS011;9330;52.210;21.174;2022-09-09T15:13:40;21.77;;;15.98;;
18407;SDS011;9330;52.210;21.174;2022-09-09T15:16:08;21.83;;;16.13;;